sensor_id;sensor_type;location;lat;lon;timestamp;P1;durP1;ratioP1;P2;durP2;ratioP2
1651;SDS011;823;49.028;8.454;2022-12-10T00:02:39;23.83;;;10.07;;
1651;SDS011;823;49.028;8.454;2022-12-10T00:07:39;26.23;;;11.03;;
1651;SDS011;823;49.028;8.454;2022-12-10T00:12:39;27.07;;;11.60;;
1651;SDS011;823;49.028;8.454;2022-12-10T00:17:40;28.47;;;11.43;;
1651;SDS011;823;49.028;8.454;2022-12-10T00:22:40;26.90;;;10.10;;
1651;SDS011;823;49.028;8.454;2022-12-10T00:27:40;23.83;;;10.60;;
1651;SDS011;823;49.028;8.454;2022-12-10T00:32:41;25.80;;;10.88;;
1651;SDS011;823;49.028;8.454;2022-12-10T00:37:41;30.13;;;10.27;;
1651;SDS011;823;49.028;8.454;2022-12-10T00:42:41;25.50;;;10.37;;
1651;SDS011;823;49.028;8.454;2022-12-10T00:47:42;31.83;;;11.23;;
1651;SDS011;823;49.028;8.454;2022-12-10T00:52:42;26.10;;;10.63;;
1651;SDS011;823;49.028;8.454;2022-12-10T00:57:42;28.23;;;11.20;;
1651;SDS011;823;49.028;8.454;2022-12-10T01:02:43;24.77;;;10.95;;
1651;SDS011;823;49.028;8.454;2022-12-10T01:07:43;32.15;;;11.25;;
1651;SDS011;823;49.028;8.454;2022-12-10T01:12:43;30.03;;;11.87;;
1651;SDS011;823;49.028;8.454;2022-12-10T01:17:44;28.93;;;10.97;;
1651;SDS011;823;49.028;8.454;2022-12-10T01:22:45;27.02;;;11.13;;
1651;SDS011;823;49.028;8.454;2022-12-10T01:27:45;29.75;;;11.70;;
1651;SDS011;823;49.028;8.454;2022-12-10T01:32:45;32.37;;;10.57;;
1651;SDS011;823;49.028;8.454;2022-12-10T01:37:46;32.60;;;10.70;;
1651;SDS011;823;49.028;8.454;2022-12-10T01:42:46;27.90;;;11.83;;
1651;SDS011;823;49.028;8.454;2022-12-10T01:47:46;25.60;;;10.60;;
1651;SDS011;823;49.028;8.454;2022-12-10T01:52:47;23.60;;;9.80;;
1651;SDS011;823;49.028;8.454;2022-12-10T01:57:48;23.90;;;10.47;;
1651;SDS011;823;49.028;8.454;2022-12-10T02:02:55;27.95;;;11.10;;
1651;SDS011;823;49.028;8.454;2022-12-10T02:13:10;26.00;;;10.47;;
1651;SDS011;823;49.028;8.454;2022-12-10T02:18:20;26.60;;;10.63;;
1651;SDS011;823;49.028;8.454;2022-12-10T02:34:09;31.73;;;12.47;;
1651;SDS011;823;49.028;8.454;2022-12-10T02:39:11;24.83;;;10.17;;
1651;SDS011;823;49.028;8.454;2022-12-10T02:44:16;22.53;;;10.20;;
1651;SDS011;823;49.028;8.454;2022-12-10T02:49:19;26.53;;;11.60;;
1651;SDS011;823;49.028;8.454;2022-12-10T02:54:34;25.43;;;11.37;;
1651;SDS011;823;49.028;8.454;2022-12-10T02:59:42;24.40;;;9.63;;
1651;SDS011;823;49.028;8.454;2022-12-10T03:05:04;25.57;;;11.13;;
1651;SDS011;823;49.028;8.454;2022-12-10T03:10:18;26.80;;;11.70;;
1651;SDS011;823;49.028;8.454;2022-12-10T03:15:20;32.57;;;11.33;;
1651;SDS011;823;49.028;8.454;2022-12-10T03:20:24;32.00;;;11.40;;
1651;SDS011;823;49.028;8.454;2022-12-10T03:25:26;22.97;;;9.40;;
1651;SDS011;823;49.028;8.454;2022-12-10T03:30:30;29.53;;;11.70;;
1651;SDS011;823;49.028;8.454;2022-12-10T03:35:33;27.30;;;10.67;;
1651;SDS011;823;49.028;8.454;2022-12-10T03:40:34;31.87;;;12.50;;
1651;SDS011;823;49.028;8.454;2022-12-10T03:45:35;32.43;;;10.97;;
1651;SDS011;823;49.028;8.454;2022-12-10T03:50:35;36.13;;;11.82;;
1651;SDS011;823;49.028;8.454;2022-12-10T03:55:36;26.67;;;10.27;;
1651;SDS011;823;49.028;8.454;2022-12-10T04:00:36;30.07;;;12.07;;
1651;SDS011;823;49.028;8.454;2022-12-10T04:05:36;30.17;;;10.40;;
1651;SDS011;823;49.028;8.454;2022-12-10T04:10:37;30.00;;;11.60;;
1651;SDS011;823;49.028;8.454;2022-12-10T04:15:38;29.80;;;11.40;;
1651;SDS011;823;49.028;8.454;2022-12-10T04:20:57;29.40;;;11.53;;
1651;SDS011;823;49.028;8.454;2022-12-10T04:26:16;31.77;;;12.50;;
1651;SDS011;823;49.028;8.454;2022-12-10T04:31:35;39.73;;;13.37;;
1651;SDS011;823;49.028;8.454;2022-12-10T04:36:35;44.13;;;14.13;;
1651;SDS011;823;49.028;8.454;2022-12-10T04:41:36;32.63;;;11.43;;
1651;SDS011;823;49.028;8.454;2022-12-10T04:46:36;39.17;;;14.32;;
1651;SDS011;823;49.028;8.454;2022-12-10T04:51:37;37.90;;;14.27;;
1651;SDS011;823;49.028;8.454;2022-12-10T04:56:38;39.83;;;12.73;;
1651;SDS011;823;49.028;8.454;2022-12-10T05:01:38;42.17;;;13.50;;
1651;SDS011;823;49.028;8.454;2022-12-10T05:06:39;36.23;;;13.60;;
1651;SDS011;823;49.028;8.454;2022-12-10T05:11:40;47.30;;;14.37;;
1651;SDS011;823;49.028;8.454;2022-12-10T05:16:40;36.47;;;14.30;;
1651;SDS011;823;49.028;8.454;2022-12-10T05:21:41;44.90;;;15.50;;
1651;SDS011;823;49.028;8.454;2022-12-10T05:27:00;35.10;;;13.43;;
1651;SDS011;823;49.028;8.454;2022-12-10T05:32:01;41.00;;;14.60;;
1651;SDS011;823;49.028;8.454;2022-12-10T05:37:02;43.60;;;14.37;;
1651;SDS011;823;49.028;8.454;2022-12-10T05:42:03;45.28;;;14.82;;
1651;SDS011;823;49.028;8.454;2022-12-10T05:47:03;37.17;;;13.37;;
1651;SDS011;823;49.028;8.454;2022-12-10T05:52:03;40.30;;;15.37;;
1651;SDS011;823;49.028;8.454;2022-12-10T05:57:04;39.83;;;13.87;;
1651;SDS011;823;49.028;8.454;2022-12-10T06:02:04;42.67;;;16.00;;
1651;SDS011;823;49.028;8.454;2022-12-10T06:07:04;41.03;;;13.82;;
1651;SDS011;823;49.028;8.454;2022-12-10T06:12:05;50.50;;;15.07;;
1651;SDS011;823;49.028;8.454;2022-12-10T06:17:05;42.43;;;13.60;;
1651;SDS011;823;49.028;8.454;2022-12-10T06:22:06;40.63;;;14.30;;
1651;SDS011;823;49.028;8.454;2022-12-10T06:27:06;40.58;;;12.85;;
1651;SDS011;823;49.028;8.454;2022-12-10T06:32:07;40.30;;;14.40;;
1651;SDS011;823;49.028;8.454;2022-12-10T06:37:07;48.27;;;14.10;;
1651;SDS011;823;49.028;8.454;2022-12-10T06:42:08;40.80;;;14.67;;
1651;SDS011;823;49.028;8.454;2022-12-10T06:47:08;46.00;;;14.30;;
1651;SDS011;823;49.028;8.454;2022-12-10T06:52:08;42.27;;;15.23;;
1651;SDS011;823;49.028;8.454;2022-12-10T06:57:09;43.30;;;15.00;;
1651;SDS011;823;49.028;8.454;2022-12-10T07:02:09;35.63;;;12.70;;
1651;SDS011;823;49.028;8.454;2022-12-10T07:07:10;43.17;;;15.83;;
1651;SDS011;823;49.028;8.454;2022-12-10T07:12:10;42.78;;;14.95;;
1651;SDS011;823;49.028;8.454;2022-12-10T07:17:10;37.60;;;13.80;;
1651;SDS011;823;49.028;8.454;2022-12-10T07:22:11;38.80;;;13.23;;
1651;SDS011;823;49.028;8.454;2022-12-10T07:27:11;37.87;;;14.77;;
1651;SDS011;823;49.028;8.454;2022-12-10T07:32:11;38.23;;;13.40;;
1651;SDS011;823;49.028;8.454;2022-12-10T07:37:12;37.13;;;13.13;;
1651;SDS011;823;49.028;8.454;2022-12-10T07:42:12;40.45;;;13.65;;
1651;SDS011;823;49.028;8.454;2022-12-10T07:47:13;47.67;;;13.77;;
1651;SDS011;823;49.028;8.454;2022-12-10T07:52:13;34.63;;;13.15;;
1651;SDS011;823;49.028;8.454;2022-12-10T07:57:13;50.70;;;14.80;;
1651;SDS011;823;49.028;8.454;2022-12-10T08:02:15;51.77;;;15.30;;
1651;SDS011;823;49.028;8.454;2022-12-10T08:07:15;43.17;;;13.23;;
1651;SDS011;823;49.028;8.454;2022-12-10T08:12:16;46.60;;;16.30;;
1651;SDS011;823;49.028;8.454;2022-12-10T08:17:16;43.80;;;15.57;;
1651;SDS011;823;49.028;8.454;2022-12-10T08:22:16;45.80;;;14.13;;
1651;SDS011;823;49.028;8.454;2022-12-10T08:27:16;32.97;;;13.30;;
1651;SDS011;823;49.028;8.454;2022-12-10T08:32:17;36.58;;;13.95;;
1651;SDS011;823;49.028;8.454;2022-12-10T08:37:17;36.80;;;12.43;;
1651;SDS011;823;49.028;8.454;2022-12-10T08:42:17;38.03;;;14.20;;
1651;SDS011;823;49.028;8.454;2022-12-10T08:47:18;41.43;;;14.80;;
1651;SDS011;823;49.028;8.454;2022-12-10T08:52:18;37.37;;;14.30;;
1651;SDS011;823;49.028;8.454;2022-12-10T08:57:18;44.70;;;14.77;;
1651;SDS011;823;49.028;8.454;2022-12-10T09:02:19;42.33;;;14.43;;
1651;SDS011;823;49.028;8.454;2022-12-10T09:07:19;38.33;;;14.73;;
1651;SDS011;823;49.028;8.454;2022-12-10T09:12:20;31.70;;;13.50;;
1651;SDS011;823;49.028;8.454;2022-12-10T09:17:20;36.93;;;12.90;;
1651;SDS011;823;49.028;8.454;2022-12-10T09:22:20;36.13;;;13.63;;
1651;SDS011;823;49.028;8.454;2022-12-10T09:27:21;26.60;;;10.40;;
1651;SDS011;823;49.028;8.454;2022-12-10T09:32:21;25.73;;;11.67;;
1651;SDS011;823;49.028;8.454;2022-12-10T09:37:21;36.90;;;11.88;;
1651;SDS011;823;49.028;8.454;2022-12-10T09:47:31;35.03;;;12.97;;
1651;SDS011;823;49.028;8.454;2022-12-10T09:52:40;29.80;;;12.10;;
1651;SDS011;823;49.028;8.454;2022-12-10T09:57:46;25.80;;;11.40;;
1651;SDS011;823;49.028;8.454;2022-12-10T10:02:50;35.23;;;12.50;;
1651;SDS011;823;49.028;8.454;2022-12-10T10:07:52;29.90;;;10.67;;
1651;SDS011;823;49.028;8.454;2022-12-10T10:13:18;27.27;;;11.47;;
1651;SDS011;823;49.028;8.454;2022-12-10T10:23:30;28.10;;;10.20;;
1651;SDS011;823;49.028;8.454;2022-12-10T10:28:31;31.40;;;11.50;;
1651;SDS011;823;49.028;8.454;2022-12-10T10:33:31;26.55;;;11.40;;
1651;SDS011;823;49.028;8.454;2022-12-10T10:38:48;21.70;;;10.00;;
1651;SDS011;823;49.028;8.454;2022-12-10T10:43:48;32.67;;;11.10;;
1651;SDS011;823;49.028;8.454;2022-12-10T10:49:12;25.47;;;11.17;;
1651;SDS011;823;49.028;8.454;2022-12-10T10:54:31;31.37;;;11.40;;
1651;SDS011;823;49.028;8.454;2022-12-10T10:59:33;28.87;;;10.67;;
1651;SDS011;823;49.028;8.454;2022-12-10T11:04:37;27.37;;;11.50;;
1651;SDS011;823;49.028;8.454;2022-12-10T11:09:45;35.60;;;11.83;;
1651;SDS011;823;49.028;8.454;2022-12-10T11:14:45;27.07;;;10.70;;
1651;SDS011;823;49.028;8.454;2022-12-10T11:19:57;28.43;;;10.53;;
1651;SDS011;823;49.028;8.454;2022-12-10T11:25:01;26.63;;;9.90;;
1651;SDS011;823;49.028;8.454;2022-12-10T11:30:04;25.33;;;10.40;;
1651;SDS011;823;49.028;8.454;2022-12-10T11:57:17;26.70;;;11.37;;
1651;SDS011;823;49.028;8.454;2022-12-10T12:12:57;23.80;;;9.50;;
1651;SDS011;823;49.028;8.454;2022-12-10T12:39:58;22.53;;;9.93;;
1651;SDS011;823;49.028;8.454;2022-12-10T13:01:07;19.33;;;9.40;;
1651;SDS011;823;49.028;8.454;2022-12-10T13:06:23;24.33;;;10.57;;
1651;SDS011;823;49.028;8.454;2022-12-10T13:11:30;27.47;;;10.23;;
1651;SDS011;823;49.028;8.454;2022-12-10T13:37:35;21.70;;;9.15;;
1651;SDS011;823;49.028;8.454;2022-12-10T13:43:39;19.07;;;8.40;;
1651;SDS011;823;49.028;8.454;2022-12-10T13:48:41;21.97;;;9.13;;
1651;SDS011;823;49.028;8.454;2022-12-10T14:09:23;17.17;;;7.40;;
1651;SDS011;823;49.028;8.454;2022-12-10T14:14:34;22.33;;;8.27;;
1651;SDS011;823;49.028;8.454;2022-12-10T14:19:38;17.20;;;7.80;;
1651;SDS011;823;49.028;8.454;2022-12-10T14:24:39;16.17;;;7.40;;
1651;SDS011;823;49.028;8.454;2022-12-10T14:29:46;16.63;;;8.00;;
1651;SDS011;823;49.028;8.454;2022-12-10T14:34:50;23.43;;;9.27;;
1651;SDS011;823;49.028;8.454;2022-12-10T14:39:54;21.03;;;8.57;;
1651;SDS011;823;49.028;8.454;2022-12-10T14:45:04;19.23;;;9.80;;
1651;SDS011;823;49.028;8.454;2022-12-10T14:50:10;19.67;;;9.50;;
1651;SDS011;823;49.028;8.454;2022-12-10T14:55:15;21.80;;;7.83;;
1651;SDS011;823;49.028;8.454;2022-12-10T15:00:20;19.80;;;9.17;;
1651;SDS011;823;49.028;8.454;2022-12-10T15:05:25;18.50;;;9.33;;
1651;SDS011;823;49.028;8.454;2022-12-10T15:10:35;21.23;;;8.17;;
1651;SDS011;823;49.028;8.454;2022-12-10T15:15:38;17.60;;;8.03;;
1651;SDS011;823;49.028;8.454;2022-12-10T15:20:50;20.43;;;8.93;;
1651;SDS011;823;49.028;8.454;2022-12-10T15:31:13;19.90;;;7.07;;
1651;SDS011;823;49.028;8.454;2022-12-10T15:36:32;19.00;;;8.47;;
1651;SDS011;823;49.028;8.454;2022-12-10T15:46:48;16.80;;;8.60;;
1651;SDS011;823;49.028;8.454;2022-12-10T15:51:50;18.57;;;9.30;;
1651;SDS011;823;49.028;8.454;2022-12-10T15:56:51;20.17;;;9.30;;
1651;SDS011;823;49.028;8.454;2022-12-10T16:01:51;17.43;;;8.17;;
1651;SDS011;823;49.028;8.454;2022-12-10T16:06:52;16.63;;;8.33;;
1651;SDS011;823;49.028;8.454;2022-12-10T16:11:52;22.47;;;9.97;;
1651;SDS011;823;49.028;8.454;2022-12-10T16:16:52;18.90;;;8.20;;
1651;SDS011;823;49.028;8.454;2022-12-10T16:21:53;18.63;;;6.77;;
1651;SDS011;823;49.028;8.454;2022-12-10T16:26:53;13.57;;;6.97;;
1651;SDS011;823;49.028;8.454;2022-12-10T16:31:53;19.80;;;8.30;;
1651;SDS011;823;49.028;8.454;2022-12-10T16:36:54;19.80;;;8.67;;
1651;SDS011;823;49.028;8.454;2022-12-10T16:41:54;16.90;;;7.43;;
1651;SDS011;823;49.028;8.454;2022-12-10T16:46:55;21.63;;;8.77;;
1651;SDS011;823;49.028;8.454;2022-12-10T16:51:55;16.92;;;7.03;;
1651;SDS011;823;49.028;8.454;2022-12-10T16:56:55;17.47;;;7.73;;
1651;SDS011;823;49.028;8.454;2022-12-10T17:01:56;18.77;;;8.50;;
1651;SDS011;823;49.028;8.454;2022-12-10T17:06:57;19.60;;;7.70;;
1651;SDS011;823;49.028;8.454;2022-12-10T17:11:57;21.00;;;7.57;;
1651;SDS011;823;49.028;8.454;2022-12-10T17:16:58;16.33;;;7.40;;
1651;SDS011;823;49.028;8.454;2022-12-10T17:22:00;25.40;;;9.13;;
1651;SDS011;823;49.028;8.454;2022-12-10T17:27:09;23.87;;;9.90;;
1651;SDS011;823;49.028;8.454;2022-12-10T17:32:15;23.53;;;9.13;;
1651;SDS011;823;49.028;8.454;2022-12-10T17:37:16;23.97;;;10.47;;
1651;SDS011;823;49.028;8.454;2022-12-10T17:42:18;26.07;;;10.50;;
1651;SDS011;823;49.028;8.454;2022-12-10T17:47:20;20.73;;;9.63;;
1651;SDS011;823;49.028;8.454;2022-12-10T17:52:23;27.10;;;10.23;;
1651;SDS011;823;49.028;8.454;2022-12-10T17:57:23;30.80;;;9.90;;
1651;SDS011;823;49.028;8.454;2022-12-10T18:02:25;30.33;;;11.27;;
1651;SDS011;823;49.028;8.454;2022-12-10T18:07:26;27.17;;;9.30;;
1651;SDS011;823;49.028;8.454;2022-12-10T18:12:27;26.20;;;11.07;;
1651;SDS011;823;49.028;8.454;2022-12-10T18:17:27;23.90;;;10.37;;
1651;SDS011;823;49.028;8.454;2022-12-10T18:22:27;28.23;;;11.63;;
1651;SDS011;823;49.028;8.454;2022-12-10T18:27:28;27.70;;;10.80;;
1651;SDS011;823;49.028;8.454;2022-12-10T18:32:29;33.70;;;12.50;;
1651;SDS011;823;49.028;8.454;2022-12-10T18:37:29;30.60;;;11.73;;
1651;SDS011;823;49.028;8.454;2022-12-10T18:42:29;30.85;;;12.15;;
1651;SDS011;823;49.028;8.454;2022-12-10T18:47:30;38.60;;;13.83;;
1651;SDS011;823;49.028;8.454;2022-12-10T18:52:31;32.17;;;14.90;;
1651;SDS011;823;49.028;8.454;2022-12-10T18:57:31;47.38;;;17.10;;
1651;SDS011;823;49.028;8.454;2022-12-10T19:02:31;40.20;;;15.13;;
1651;SDS011;823;49.028;8.454;2022-12-10T19:07:32;39.33;;;15.00;;
1651;SDS011;823;49.028;8.454;2022-12-10T19:12:32;38.57;;;16.57;;
1651;SDS011;823;49.028;8.454;2022-12-10T19:17:32;39.37;;;14.90;;
1651;SDS011;823;49.028;8.454;2022-12-10T19:22:33;35.13;;;14.27;;
1651;SDS011;823;49.028;8.454;2022-12-10T19:27:33;31.80;;;12.47;;
1651;SDS011;823;49.028;8.454;2022-12-10T19:32:33;32.83;;;12.57;;
1651;SDS011;823;49.028;8.454;2022-12-10T19:37:34;37.70;;;14.30;;
1651;SDS011;823;49.028;8.454;2022-12-10T19:42:34;31.53;;;13.23;;
1651;SDS011;823;49.028;8.454;2022-12-10T19:47:34;39.53;;;14.60;;
1651;SDS011;823;49.028;8.454;2022-12-10T19:52:35;34.30;;;12.07;;
1651;SDS011;823;49.028;8.454;2022-12-10T19:57:35;35.40;;;12.63;;
1651;SDS011;823;49.028;8.454;2022-12-10T20:02:36;27.77;;;12.30;;
1651;SDS011;823;49.028;8.454;2022-12-10T20:07:36;35.00;;;12.97;;
1651;SDS011;823;49.028;8.454;2022-12-10T20:12:37;42.03;;;16.13;;
1651;SDS011;823;49.028;8.454;2022-12-10T20:17:38;44.00;;;16.83;;
1651;SDS011;823;49.028;8.454;2022-12-10T20:22:38;51.30;;;19.20;;
1651;SDS011;823;49.028;8.454;2022-12-10T20:27:39;47.30;;;16.70;;
1651;SDS011;823;49.028;8.454;2022-12-10T20:32:39;47.47;;;14.80;;
1651;SDS011;823;49.028;8.454;2022-12-10T20:37:40;38.13;;;16.30;;
1651;SDS011;823;49.028;8.454;2022-12-10T20:42:40;33.40;;;14.73;;
1651;SDS011;823;49.028;8.454;2022-12-10T20:47:41;36.77;;;14.63;;
1651;SDS011;823;49.028;8.454;2022-12-10T20:52:42;35.80;;;14.83;;
1651;SDS011;823;49.028;8.454;2022-12-10T20:57:42;46.40;;;15.67;;
1651;SDS011;823;49.028;8.454;2022-12-10T21:02:43;41.10;;;16.37;;
1651;SDS011;823;49.028;8.454;2022-12-10T21:07:44;39.97;;;16.03;;
1651;SDS011;823;49.028;8.454;2022-12-10T21:12:44;42.50;;;15.70;;
1651;SDS011;823;49.028;8.454;2022-12-10T21:17:44;39.65;;;16.50;;
1651;SDS011;823;49.028;8.454;2022-12-10T21:22:45;44.07;;;16.60;;
1651;SDS011;823;49.028;8.454;2022-12-10T21:27:45;38.73;;;15.23;;
1651;SDS011;823;49.028;8.454;2022-12-10T21:32:45;45.60;;;17.77;;
1651;SDS011;823;49.028;8.454;2022-12-10T21:37:46;46.17;;;16.80;;
1651;SDS011;823;49.028;8.454;2022-12-10T21:42:47;46.80;;;19.63;;
1651;SDS011;823;49.028;8.454;2022-12-10T21:48:05;50.27;;;18.27;;
1651;SDS011;823;49.028;8.454;2022-12-10T21:53:06;46.30;;;17.73;;
1651;SDS011;823;49.028;8.454;2022-12-10T21:58:07;44.40;;;15.20;;
1651;SDS011;823;49.028;8.454;2022-12-10T22:03:08;40.67;;;16.23;;
1651;SDS011;823;49.028;8.454;2022-12-10T22:08:08;38.87;;;14.97;;
1651;SDS011;823;49.028;8.454;2022-12-10T22:13:09;51.30;;;16.73;;
1651;SDS011;823;49.028;8.454;2022-12-10T22:18:10;44.30;;;16.17;;
1651;SDS011;823;49.028;8.454;2022-12-10T22:23:12;40.03;;;15.87;;
1651;SDS011;823;49.028;8.454;2022-12-10T22:28:14;38.67;;;15.80;;
1651;SDS011;823;49.028;8.454;2022-12-10T22:33:15;39.03;;;16.10;;
1651;SDS011;823;49.028;8.454;2022-12-10T22:38:15;42.97;;;16.60;;
1651;SDS011;823;49.028;8.454;2022-12-10T22:43:16;35.10;;;14.60;;
1651;SDS011;823;49.028;8.454;2022-12-10T22:48:16;34.70;;;15.70;;
1651;SDS011;823;49.028;8.454;2022-12-10T22:53:17;39.27;;;13.47;;
1651;SDS011;823;49.028;8.454;2022-12-10T22:58:18;33.83;;;13.77;;
1651;SDS011;823;49.028;8.454;2022-12-10T23:03:18;34.55;;;13.45;;
1651;SDS011;823;49.028;8.454;2022-12-10T23:08:18;33.93;;;14.93;;
1651;SDS011;823;49.028;8.454;2022-12-10T23:13:19;32.27;;;13.83;;
1651;SDS011;823;49.028;8.454;2022-12-10T23:18:22;41.60;;;14.30;;
1651;SDS011;823;49.028;8.454;2022-12-10T23:23:22;35.50;;;14.70;;
1651;SDS011;823;49.028;8.454;2022-12-10T23:28:23;36.90;;;13.60;;
1651;SDS011;823;49.028;8.454;2022-12-10T23:33:23;41.10;;;13.53;;
1651;SDS011;823;49.028;8.454;2022-12-10T23:38:24;43.10;;;15.53;;
1651;SDS011;823;49.028;8.454;2022-12-10T23:43:24;36.10;;;14.50;;
1651;SDS011;823;49.028;8.454;2022-12-10T23:48:24;37.93;;;14.70;;
1651;SDS011;823;49.028;8.454;2022-12-10T23:53:25;31.47;;;13.90;;
1651;SDS011;823;49.028;8.454;2022-12-10T23:58:27;38.20;;;14.40;;
